Time;durP1;ratioP1;P1;durP2;ratioP2;P2;SDS_P1;SDS_P2;PMS_P1;PMS_P2;Temp;Humidity;BMP_temperature;BMP_pressure;BME280_temperature;BME280_humidity;BME280_pressure;Samples;Min_cycle;Max_cycle;Signal;HPM_P1;HPM_P2
2023/05/03 00:02:01;;;;;;;9.10;8.70;;;;;;;12.27;54.25;93095.00;5070751;28;20190;-69
2023/05/03 00:04:27;;;;;;;9.30;8.70;;;;;;;12.33;53.95;93107.00;5069926;28;20245;-70
2023/05/03 00:06:52;;;;;;;9.20;8.50;;;;;;;12.30;53.61;93110.16;5073285;28;20226;-71
2023/05/03 00:09:18;;;;;;;10.37;9.70;;;;;;;12.28;53.63;93117.53;5069826;28;20245;-70
2023/05/03 00:11:44;;;;;;;10.03;9.23;;;;;;;12.25;53.66;93113.63;5070984;28;20189;-71
2023/05/03 00:14:09;;;;;;;9.43;8.93;;;;;;;11.80;53.23;93045.22;5070300;28;20186;-70
2023/05/03 00:16:34;;;;;;;10.30;9.63;;;;;;;12.07;53.42;93114.31;5070245;28;20232;-71
2023/05/03 00:19:00;;;;;;;9.77;9.23;;;;;;;12.00;53.88;93105.22;5069855;28;20239;-70
2023/05/03 00:21:25;;;;;;;10.07;9.47;;;;;;;11.78;53.46;93081.31;5069730;28;20239;-71
2023/05/03 00:23:51;;;;;;;9.70;9.20;;;;;;;11.98;53.76;93121.19;5070024;28;20184;-70
2023/05/03 00:26:17;;;;;;;10.33;9.73;;;;;;;11.87;53.89;93098.78;5069260;28;20240;-70
2023/05/03 00:28:42;;;;;;;9.40;8.90;;;;;;;11.91;53.95;93099.00;5069691;28;20188;-71
2023/05/03 00:31:09;;;;;;;9.70;9.10;;;;;;;11.82;53.67;93100.63;5069561;28;20247;-71
2023/05/03 00:33:38;;;;;;;10.27;9.67;;;;;;;11.91;54.12;93122.53;5069586;28;20176;-71
2023/05/03 00:36:08;;;;;;;10.00;9.33;;;;;;;11.82;53.81;93113.72;5068054;28;20228;-71
2023/05/03 00:38:33;;;;;;;10.57;9.60;;;;;;;11.88;53.54;93115.25;5069570;28;20361;-71
2023/05/03 00:40:59;;;;;;;9.97;9.13;;;;;;;11.80;53.62;93123.69;5069494;28;20217;-70
2023/05/03 00:43:24;;;;;;;9.47;9.07;;;;;;;11.75;52.84;93121.88;5069616;28;20231;-71
2023/05/03 00:45:50;;;;;;;9.20;8.33;;;;;;;11.71;52.13;93122.69;5069126;28;20288;-70
2023/05/03 00:48:17;;;;;;;8.80;8.20;;;;;;;11.70;52.45;93121.13;5069755;28;20193;-70
2023/05/03 00:50:43;;;;;;;8.83;7.97;;;;;;;11.32;53.29;93071.16;5051948;28;20223;-71
2023/05/03 00:53:10;;;;;;;8.20;7.80;;;;;;;11.47;54.12;93101.63;5069740;28;20189;-71
2023/05/03 00:55:35;;;;;;;10.70;9.87;;;;;;;11.59;53.43;93112.56;5069198;28;20236;-70
2023/05/03 00:58:00;;;;;;;9.00;8.13;;;;;;;11.50;53.42;93092.47;5052218;28;20177;-69
2023/05/03 01:00:26;;;;;;;10.37;9.80;;;;;;;11.48;53.88;93105.81;5068837;28;20919;-70
2023/05/03 01:02:52;;;;;;;9.80;9.00;;;;;;;11.41;53.86;93094.13;5069428;28;20178;-71
2023/05/03 01:05:20;;;;;;;8.90;8.50;;;;;;;11.43;54.34;93086.75;5059205;28;20285;-68
2023/05/03 01:08:08;;;;;;;9.80;9.20;;;;;;;11.48;53.61;93089.34;5073652;28;20202;-68
2023/05/03 01:11:07;;;;;;;8.87;8.30;;;;;;;11.26;54.11;93077.47;5073206;28;20264;-69
2023/05/03 01:13:38;;;;;;;10.50;9.27;;;;;;;11.50;53.38;93088.03;5055764;28;20187;-70
2023/05/03 01:16:17;;;;;;;9.57;8.97;;;;;;;11.35;53.75;93073.22;5072989;28;20226;-71
2023/05/03 01:18:47;;;;;;;9.47;8.87;;;;;;;11.09;53.47;93034.44;5073513;28;20190;-70
2023/05/03 01:21:16;;;;;;;8.87;8.47;;;;;;;11.46;53.21;93078.38;5073014;28;20297;-71
2023/05/03 01:23:50;;;;;;;9.33;8.83;;;;;;;11.30;53.14;93062.00;5073281;28;20221;-71
2023/05/03 01:26:20;;;;;;;9.83;8.93;;;;;;;11.35;53.51;93080.28;5070918;28;20237;-70
2023/05/03 01:28:45;;;;;;;8.77;8.27;;;;;;;11.27;53.47;93065.16;5073621;28;20194;-70
2023/05/03 01:31:16;;;;;;;10.00;9.07;;;;;;;11.22;53.88;93081.66;5072833;28;20221;-70
2023/05/03 01:34:01;;;;;;;9.50;8.80;;;;;;;11.27;53.56;93070.38;5073051;28;20190;-71
2023/05/03 01:36:32;;;;;;;10.30;9.63;;;;;;;11.04;54.21;93058.78;5061937;28;20247;-70
2023/05/03 01:39:06;;;;;;;9.20;8.50;;;;;;;11.06;54.38;93046.25;5072560;28;20183;-70
2023/05/03 01:41:33;;;;;;;10.70;10.00;;;;;;;10.88;55.12;93049.44;5055389;28;20285;-70
2023/05/03 01:43:59;;;;;;;9.07;8.57;;;;;;;10.94;54.81;93050.97;5072571;28;20956;-70
2023/05/03 01:46:25;;;;;;;8.87;8.47;;;;;;;10.98;54.17;93046.81;5071967;28;20236;-69
2023/05/03 01:48:50;;;;;;;9.33;8.73;;;;;;;10.87;54.74;93028.81;5073189;28;20193;-71
2023/05/03 01:51:15;;;;;;;9.07;8.43;;;;;;;10.91;54.70;93043.69;5054971;28;20221;-70
2023/05/03 01:53:41;;;;;;;8.63;8.03;;;;;;;10.90;54.54;93036.13;5072478;28;20826;-71
2023/05/03 01:56:07;;;;;;;9.70;9.17;;;;;;;10.95;54.38;93025.66;5055083;28;20236;-70
2023/05/03 01:58:32;;;;;;;10.13;9.63;;;;;;;10.90;54.77;93034.31;5072614;28;20183;-70
2023/05/03 02:00:58;;;;;;;8.73;8.37;;;;;;;10.80;55.37;93020.53;5072517;28;20297;-70
2023/05/03 02:03:23;;;;;;;9.90;9.37;;;;;;;10.75;55.67;93018.72;5072769;28;20237;-70
2023/05/03 02:05:49;;;;;;;9.77;9.17;;;;;;;10.58;55.74;93020.88;5072387;28;20221;-70
2023/05/03 02:08:15;;;;;;;9.83;9.33;;;;;;;10.60;55.75;93018.78;5072706;28;20194;-70
2023/05/03 02:10:43;;;;;;;10.10;9.53;;;;;;;10.41;56.39;93004.75;5071891;28;20306;-68
2023/05/03 02:13:08;;;;;;;8.40;7.80;;;;;;;10.71;55.79;93020.28;5072875;28;20205;-70
2023/05/03 02:15:34;;;;;;;9.83;8.77;;;;;;;10.70;55.93;93008.28;5072220;28;20222;-70
2023/05/03 02:18:01;;;;;;;9.87;9.13;;;;;;;10.68;55.86;93002.56;5072457;28;20237;-70
2023/05/03 02:20:27;;;;;;;10.40;9.80;;;;;;;10.73;56.03;92999.13;5072188;28;20229;-71
2023/05/03 02:22:52;;;;;;;10.30;9.80;;;;;;;10.89;55.36;93006.63;5072456;28;20210;-70
2023/05/03 02:25:17;;;;;;;9.87;9.37;;;;;;;10.77;56.06;93005.38;5071736;28;20225;-70
2023/05/03 02:27:43;;;;;;;9.73;9.23;;;;;;;10.80;55.77;93004.84;5072015;28;20225;-70
2023/05/03 02:30:08;;;;;;;10.67;9.97;;;;;;;10.92;54.79;92995.63;5071793;28;20225;-70
2023/05/03 02:32:34;;;;;;;9.90;9.50;;;;;;;10.77;55.27;93000.16;5054624;28;20178;-70
2023/05/03 02:35:00;;;;;;;8.47;7.97;;;;;;;10.82;55.04;93021.81;5072000;28;20217;-70
2023/05/03 02:37:26;;;;;;;10.73;10.13;;;;;;;10.71;55.32;93015.06;5072296;28;20165;-70
2023/05/03 02:39:51;;;;;;;9.40;8.80;;;;;;;10.61;55.95;93028.19;5071731;28;20255;-70
2023/05/03 02:42:16;;;;;;;9.43;8.63;;;;;;;10.46;56.48;93009.97;5072640;28;20220;-70
2023/05/03 02:44:42;;;;;;;9.70;9.00;;;;;;;10.50;57.07;93024.06;5071268;28;20224;-70
2023/05/03 02:47:08;;;;;;;10.00;9.40;;;;;;;10.59;57.02;93024.25;5072040;28;20205;-69
2023/05/03 02:49:34;;;;;;;10.10;9.37;;;;;;;10.69;56.48;93017.16;5071969;28;20220;-72
2023/05/03 02:51:59;;;;;;;10.63;10.03;;;;;;;10.57;56.76;93008.06;5072001;28;20183;-71
2023/05/03 02:54:25;;;;;;;9.70;9.10;;;;;;;10.55;56.99;93008.34;5071422;28;20196;-70
2023/05/03 02:56:50;;;;;;;11.13;10.23;;;;;;;10.67;56.65;93003.59;5071976;28;20239;-70
2023/05/03 02:59:16;;;;;;;9.57;8.97;;;;;;;10.68;56.41;93020.81;5071476;28;20185;-70
2023/05/03 03:01:41;;;;;;;9.93;9.23;;;;;;;10.68;56.48;93022.66;5071869;28;20204;-70
2023/05/03 03:04:07;;;;;;;9.00;8.30;;;;;;;10.60;56.96;93021.38;5071564;28;20224;-70
2023/05/03 03:06:32;;;;;;;10.33;9.53;;;;;;;10.68;56.93;93007.78;5071104;28;20225;-70
2023/05/03 03:08:57;;;;;;;11.00;10.27;;;;;;;10.46;57.24;93004.72;5071587;28;20193;-70
2023/05/03 03:11:24;;;;;;;9.80;9.20;;;;;;;10.71;57.09;93007.22;5071188;28;20218;-69
2023/05/03 03:13:49;;;;;;;9.47;8.93;;;;;;;10.63;57.19;93007.78;5071614;28;20189;-70
2023/05/03 03:16:14;;;;;;;9.03;8.53;;;;;;;10.44;57.04;92993.81;5070863;28;20218;-70
2023/05/03 03:18:40;;;;;;;10.07;9.33;;;;;;;10.49;57.77;92995.59;5071496;28;20213;-70
2023/05/03 03:21:05;;;;;;;9.53;9.00;;;;;;;10.61;57.72;93002.06;5070952;28;20290;-70
2023/05/03 03:23:31;;;;;;;9.37;8.77;;;;;;;10.56;57.50;93002.09;5071325;28;20190;-70
2023/05/03 03:25:56;;;;;;;9.37;8.77;;;;;;;10.67;57.93;93005.44;5070387;28;20239;-70
2023/05/03 03:28:21;;;;;;;9.93;9.33;;;;;;;10.85;56.50;93015.25;5070736;28;20178;-70
2023/05/03 03:30:47;;;;;;;9.53;9.00;;;;;;;10.74;56.75;93011.91;5052865;28;20468;-70
2023/05/03 03:33:12;;;;;;;10.63;9.87;;;;;;;10.71;57.29;93032.56;5071258;28;20176;-70
2023/05/03 03:35:38;;;;;;;9.57;9.03;;;;;;;10.60;57.16;93037.03;5070298;28;20218;-70
2023/05/03 03:38:04;;;;;;;10.20;9.33;;;;;;;10.50;56.93;93028.47;5071125;28;20216;-70
2023/05/03 03:40:30;;;;;;;9.03;8.50;;;;;;;10.76;56.71;93029.94;5070137;28;20212;-70
2023/05/03 03:42:55;;;;;;;9.63;8.63;;;;;;;10.63;56.28;93035.75;5071306;28;20177;-71
2023/05/03 03:45:21;;;;;;;10.57;9.87;;;;;;;10.88;55.38;93039.00;5069804;28;20229;-69
2023/05/03 03:47:46;;;;;;;11.23;10.53;;;;;;;10.93;54.79;93035.59;5070558;28;20259;-70
2023/05/03 03:50:11;;;;;;;9.87;9.37;;;;;;;10.78;55.87;93049.53;5069679;28;20227;-70
2023/05/03 03:52:37;;;;;;;9.00;8.40;;;;;;;10.80;54.83;93042.16;5070708;28;20189;-71
2023/05/03 03:55:02;;;;;;;11.10;10.40;;;;;;;10.75;56.82;93046.66;5065631;28;20222;-72
2023/05/03 03:57:30;;;;;;;9.63;9.13;;;;;;;10.72;56.86;93049.81;5065955;28;20201;-73
2023/05/03 03:59:56;;;;;;;8.70;8.10;;;;;;;10.86;55.43;93067.22;5069163;28;20226;-74
2023/05/03 04:02:23;;;;;;;9.60;9.00;;;;;;;10.78;55.34;93061.78;5069365;28;20239;-72
2023/05/03 04:04:48;;;;;;;9.23;8.57;;;;;;;11.00;54.61;93077.88;5068785;28;20225;-71
2023/05/03 04:07:14;;;;;;;10.07;9.47;;;;;;;10.80;55.56;93068.28;5068899;28;20193;-71
2023/05/03 04:09:39;;;;;;;9.63;9.03;;;;;;;10.84;55.26;93052.88;5068523;28;20905;-73
2023/05/03 04:12:05;;;;;;;10.33;9.70;;;;;;;10.77;56.66;93068.81;5069260;28;20292;-72
2023/05/03 04:14:30;;;;;;;9.97;9.27;;;;;;;10.72;56.62;93065.47;5068465;28;20621;-69
2023/05/03 04:16:55;;;;;;;9.53;9.03;;;;;;;10.73;55.80;93078.25;5057288;28;20192;-68
2023/05/03 04:19:22;;;;;;;11.37;10.23;;;;;;;10.74;56.10;93092.88;5068490;28;20193;-69
2023/05/03 04:21:48;;;;;;;9.43;8.93;;;;;;;10.67;56.33;93084.56;5069024;28;20203;-68
2023/05/03 04:24:16;;;;;;;13.50;9.00;;;;;;;10.79;55.88;93098.09;5069573;28;20219;-69
2023/05/03 04:26:42;;;;;;;10.13;9.50;;;;;;;10.80;56.03;93101.47;5068941;28;20255;-71
2023/05/03 04:29:09;;;;;;;9.70;9.20;;;;;;;10.88;55.48;93106.91;5068849;28;20190;-69
2023/05/03 04:31:35;;;;;;;9.40;8.80;;;;;;;10.94;55.78;93116.28;5068328;28;20222;-72
2023/05/03 04:34:00;;;;;;;9.47;8.93;;;;;;;10.75;55.78;93094.44;5068613;28;20197;-74
2023/05/03 04:36:28;;;;;;;10.37;9.67;;;;;;;10.93;57.42;93090.44;5069431;28;20244;-73
2023/05/03 04:38:54;;;;;;;10.23;9.63;;;;;;;11.07;56.30;93109.69;5068452;28;20182;-74
2023/05/03 04:41:20;;;;;;;10.13;9.30;;;;;;;11.05;55.61;93109.97;5069216;28;20223;-70
2023/05/03 04:43:45;;;;;;;10.17;9.43;;;;;;;10.91;55.49;93097.78;5070116;28;20866;-70
2023/05/03 04:46:11;;;;;;;10.30;8.43;;;;;;;10.99;55.57;93110.25;5069644;28;20281;-71
2023/05/03 04:48:36;;;;;;;9.07;8.67;;;;;;;10.87;56.52;93118.44;5069313;28;20182;-70
2023/05/03 04:51:02;;;;;;;12.53;9.30;;;;;;;10.92;56.30;93128.84;5069316;28;20252;-70
2023/05/03 04:53:27;;;;;;;10.27;9.23;;;;;;;11.00;57.65;93141.34;5069952;28;20192;-70
2023/05/03 04:55:52;;;;;;;9.20;8.70;;;;;;;10.87;58.24;93128.09;5069331;28;20225;-70
2023/05/03 04:58:18;;;;;;;9.87;9.17;;;;;;;10.85;59.85;93138.78;5069786;28;20194;-70
2023/05/03 05:00:44;;;;;;;10.37;9.53;;;;;;;10.61;63.55;93147.50;5069373;28;20221;-71
2023/05/03 05:03:10;;;;;;;10.33;9.73;;;;;;;10.72;63.95;93154.25;5069110;28;20213;-70
2023/05/03 05:05:35;;;;;;;9.87;9.27;;;;;;;10.51;63.94;93144.91;5067852;28;20238;-70
2023/05/03 05:08:01;;;;;;;8.93;8.47;;;;;;;10.55;64.90;93159.75;5069130;28;20197;-70
2023/05/03 05:10:26;;;;;;;9.33;8.63;;;;;;;10.57;63.39;93162.09;5069004;28;20245;-70
2023/05/03 05:12:52;;;;;;;9.07;8.63;;;;;;;10.43;66.09;93167.09;5069933;28;20181;-70
2023/05/03 05:15:17;;;;;;;10.03;9.37;;;;;;;10.62;65.38;93160.28;5069119;28;20228;-71
2023/05/03 05:17:43;;;;;;;9.37;8.80;;;;;;;10.67;66.15;93172.53;5068540;28;20181;-70
2023/05/03 05:20:11;;;;;;;9.23;8.73;;;;;;;10.80;65.23;93161.56;5069182;28;20229;-70
2023/05/03 05:22:39;;;;;;;9.93;9.23;;;;;;;10.89;64.98;93171.19;5064683;28;20200;-70
2023/05/03 05:25:06;;;;;;;9.13;8.63;;;;;;;10.64;64.87;93142.53;5069196;28;20307;-70
2023/05/03 05:27:32;;;;;;;10.63;9.87;;;;;;;10.92;64.53;93180.31;5069333;28;20230;-70
2023/05/03 05:29:58;;;;;;;10.67;10.07;;;;;;;10.85;66.11;93164.91;5068081;28;20228;-71
2023/05/03 05:32:23;;;;;;;9.67;9.07;;;;;;;11.28;62.13;93187.75;5055621;28;20194;-71
2023/05/03 05:34:54;;;;;;;9.30;8.80;;;;;;;11.06;63.70;93179.50;5051356;28;20244;-70
2023/05/03 05:37:26;;;;;;;10.73;9.93;;;;;;;11.48;63.49;93192.13;5069188;28;20197;-68
2023/05/03 05:39:52;;;;;;;10.67;9.87;;;;;;;11.35;62.94;93179.63;5069025;28;20284;-70
2023/05/03 05:42:17;;;;;;;10.00;9.30;;;;;;;11.38;64.38;93177.25;5051952;28;20186;-70
2023/05/03 05:44:43;;;;;;;10.33;9.63;;;;;;;11.25;62.64;93167.38;5068680;28;20259;-71
2023/05/03 05:47:09;;;;;;;10.50;9.80;;;;;;;11.18;62.98;93163.50;5069287;28;21159;-70
2023/05/03 05:49:34;;;;;;;9.80;9.03;;;;;;;11.14;63.74;93162.47;5068835;28;20186;-71
2023/05/03 05:52:00;;;;;;;10.67;9.93;;;;;;;11.14;64.72;93168.47;5072364;28;20189;-70
2023/05/03 05:54:26;;;;;;;11.33;10.43;;;;;;;11.01;64.63;93171.66;5072874;28;20201;-71
2023/05/03 05:56:51;;;;;;;10.30;9.70;;;;;;;11.06;64.15;93176.09;5072803;28;20206;-70
2023/05/03 05:59:17;;;;;;;9.87;9.10;;;;;;;11.01;64.79;93174.28;5072934;28;20181;-70
2023/05/03 06:01:44;;;;;;;10.23;9.43;;;;;;;11.18;64.14;93172.13;5072609;28;20177;-70
2023/05/03 06:04:13;;;;;;;9.83;9.23;;;;;;;11.23;63.19;93172.09;5072762;28;20209;-70
2023/05/03 06:06:38;;;;;;;11.40;10.17;;;;;;;11.04;63.00;93145.00;5072051;28;20225;-77
2023/05/03 06:09:03;;;;;;;9.93;9.32;;;;;;;11.21;61.18;93178.63;5070895;28;20483;-69
2023/05/03 06:11:29;;;;;;;11.40;10.37;;;;;;;11.22;61.95;93175.75;5070027;28;20249;-69
2023/05/03 06:13:56;;;;;;;9.90;9.10;;;;;;;11.34;61.80;93171.00;5053997;28;20197;-71
2023/05/03 06:16:22;;;;;;;11.07;10.03;;;;;;;11.35;62.29;93172.56;5070301;28;20235;-71
2023/05/03 06:18:47;;;;;;;10.20;9.50;;;;;;;11.36;62.68;93168.88;5070657;28;20186;-69
2023/05/03 06:21:13;;;;;;;10.87;10.27;;;;;;;11.43;64.54;93167.81;5053196;28;20240;-69
2023/05/03 06:23:39;;;;;;;10.37;9.87;;;;;;;11.64;64.16;93169.31;5071170;28;20179;-73
2023/05/03 06:26:06;;;;;;;10.40;9.60;;;;;;;11.71;63.96;93173.19;5067536;28;20291;-71
2023/05/03 06:28:31;;;;;;;9.70;8.90;;;;;;;11.66;64.77;93164.59;5070194;28;20212;-69
2023/05/03 06:30:56;;;;;;;10.40;9.70;;;;;;;11.61;65.52;93159.34;5066138;28;20285;-68
2023/05/03 06:33:22;;;;;;;10.40;9.80;;;;;;;11.45;64.85;93145.59;5070171;28;20186;-69
2023/05/03 06:35:47;;;;;;;10.37;9.77;;;;;;;11.52;63.93;93137.44;5052069;28;20236;-70
2023/05/03 06:38:13;;;;;;;10.13;9.53;;;;;;;11.70;64.04;93132.38;5070644;28;20205;-69
2023/05/03 06:40:40;;;;;;;11.03;10.10;;;;;;;11.77;64.42;93145.94;5069672;28;20240;-68
2023/05/03 06:43:06;;;;;;;10.70;9.70;;;;;;;11.69;64.59;93146.50;5071218;28;20188;-67
2023/05/03 06:45:31;;;;;;;11.70;10.93;;;;;;;11.65;65.13;93136.84;5069602;28;20262;-70
2023/05/03 06:47:57;;;;;;;11.33;10.53;;;;;;;11.75;65.20;93136.81;5070710;28;20253;-70
2023/05/03 06:50:23;;;;;;;10.60;10.03;;;;;;;11.61;64.21;93120.13;5069918;28;20240;-70
2023/05/03 06:52:49;;;;;;;11.10;10.50;;;;;;;11.72;65.55;93132.88;5069840;28;20704;-69
2023/05/03 06:55:15;;;;;;;10.23;9.53;;;;;;;11.62;64.64;93126.91;5069817;28;20225;-70
2023/05/03 06:57:41;;;;;;;10.70;10.07;;;;;;;11.79;64.20;93141.22;5070419;28;20185;-70
2023/05/03 07:00:08;;;;;;;9.90;9.30;;;;;;;11.73;64.16;93128.44;5070009;28;20234;-70
2023/05/03 07:02:33;;;;;;;10.70;10.10;;;;;;;11.67;63.56;93132.94;5069574;28;22094;-70
2023/05/03 07:04:59;;;;;;;10.30;9.70;;;;;;;11.76;63.81;93127.88;5051884;28;20238;-69
2023/05/03 07:07:24;;;;;;;10.33;9.63;;;;;;;11.67;64.23;93132.94;5052522;28;20193;-70
2023/05/03 07:09:49;;;;;;;10.40;9.63;;;;;;;11.73;63.92;93129.22;5069414;28;20237;-69
2023/05/03 07:12:15;;;;;;;11.03;10.30;;;;;;;11.47;62.86;93072.13;5070272;28;20232;-69
2023/05/03 07:14:41;;;;;;;10.67;9.83;;;;;;;11.68;62.60;93116.19;5069860;28;20224;-71
2023/05/03 07:17:07;;;;;;;11.67;10.97;;;;;;;11.95;63.03;93113.09;5070527;28;20183;-71
2023/05/03 07:19:32;;;;;;;10.40;9.80;;;;;;;12.23;62.03;93114.97;5068833;28;20201;-70
2023/05/03 07:21:58;;;;;;;10.77;9.97;;;;;;;12.21;62.54;93119.69;5069869;28;20209;-71
2023/05/03 07:24:24;;;;;;;9.57;9.07;;;;;;;12.25;61.85;93120.72;5069301;28;20225;-70
2023/05/03 07:26:51;;;;;;;10.53;9.73;;;;;;;12.31;62.22;93115.13;5069574;28;20257;-69
2023/05/03 07:29:16;;;;;;;10.93;10.07;;;;;;;12.29;63.29;93111.22;5069565;28;20986;-71
2023/05/03 07:31:43;;;;;;;10.60;9.67;;;;;;;12.44;62.89;93111.06;5070014;28;20192;-70
2023/05/03 07:34:09;;;;;;;10.20;9.53;;;;;;;12.51;62.49;93098.47;5069574;28;20185;-70
2023/05/03 07:36:34;;;;;;;10.50;9.90;;;;;;;12.65;61.79;93104.59;5051625;28;20270;-69
2023/05/03 07:39:00;;;;;;;10.80;9.93;;;;;;;12.61;61.76;93093.88;5069042;28;21064;-70
2023/05/03 07:41:25;;;;;;;10.70;9.87;;;;;;;12.69;61.72;93119.47;5069080;28;20221;-70
2023/05/03 07:43:51;;;;;;;10.53;9.87;;;;;;;12.58;61.95;93125.09;5069067;28;20193;-70
2023/05/03 07:46:16;;;;;;;10.60;9.90;;;;;;;12.44;62.21;93132.03;5051550;28;20271;-71
2023/05/03 07:48:42;;;;;;;10.77;9.97;;;;;;;12.31;62.96;93140.53;5069975;28;20198;-70
2023/05/03 07:51:07;;;;;;;10.17;9.47;;;;;;;12.47;62.68;93134.09;5069208;28;20215;-70
2023/05/03 07:53:34;;;;;;;10.97;10.30;;;;;;;12.57;61.77;93128.78;5063825;28;20196;-72
2023/05/03 07:56:00;;;;;;;10.47;9.87;;;;;;;12.49;62.18;93129.38;5068967;28;20235;-73
2023/05/03 07:58:25;;;;;;;10.57;9.87;;;;;;;12.71;61.83;93134.91;5068565;28;20185;-70
2023/05/03 08:00:51;;;;;;;10.80;10.20;;;;;;;12.70;61.57;93120.25;5068788;28;20300;-70
2023/05/03 08:03:16;;;;;;;12.30;11.23;;;;;;;13.10;61.36;93148.66;5068745;28;20216;-69
2023/05/03 08:05:42;;;;;;;11.23;10.53;;;;;;;13.35;61.17;93150.97;5068663;28;20221;-71
2023/05/03 08:08:08;;;;;;;11.80;10.93;;;;;;;13.56;60.39;93147.00;5069039;28;20218;-70
2023/05/03 08:10:36;;;;;;;10.47;9.57;;;;;;;13.50;59.14;93137.66;5068540;28;20240;-71
2023/05/03 08:13:03;;;;;;;9.60;9.10;;;;;;;14.03;58.90;93140.81;5067861;28;20185;-70
2023/05/03 08:15:28;;;;;;;10.83;10.13;;;;;;;14.29;58.08;93149.88;5068842;28;20221;-73
2023/05/03 08:17:53;;;;;;;10.13;9.63;;;;;;;14.40;56.96;93151.28;5068611;28;20208;-72
2023/05/03 08:20:20;;;;;;;11.03;10.23;;;;;;;14.38;56.94;93148.94;5067485;28;20221;-72
2023/05/03 08:22:46;;;;;;;10.80;10.30;;;;;;;14.42;57.05;93139.44;5068633;28;20213;-71
2023/05/03 08:25:11;;;;;;;9.93;9.13;;;;;;;14.87;57.04;93153.63;5068283;28;20221;-72
2023/05/03 08:27:37;;;;;;;11.67;10.77;;;;;;;15.28;55.09;93159.69;5068471;28;20235;-70
2023/05/03 08:30:03;;;;;;;10.83;9.93;;;;;;;15.54;54.57;93157.31;5068565;28;20232;-71
2023/05/03 08:32:29;;;;;;;10.47;9.80;;;;;;;15.63;54.21;93164.25;5068518;28;20204;-71
2023/05/03 08:34:55;;;;;;;11.17;10.37;;;;;;;15.58;54.36;93171.47;5072834;28;20252;-71
2023/05/03 08:37:21;;;;;;;9.83;9.13;;;;;;;15.48;54.87;93159.28;5068841;28;20180;-72
2023/05/03 08:39:47;;;;;;;10.50;9.90;;;;;;;15.49;54.84;93158.22;5068150;28;20225;-71
2023/05/03 08:42:12;;;;;;;10.90;10.17;;;;;;;14.28;58.46;93164.88;5068521;28;20282;-71
2023/05/03 08:44:46;;;;;;;11.80;10.87;;;;;;;14.35;59.12;93165.28;5068175;28;20285;-70
2023/05/03 08:47:14;;;;;;;10.90;10.20;;;;;;;14.07;59.82;93157.59;5068052;28;20189;-71
2023/05/03 08:49:41;;;;;;;10.57;9.77;;;;;;;13.82;59.64;93165.81;5068057;28;20255;-71
2023/05/03 08:52:08;;;;;;;11.33;10.67;;;;;;;13.26;62.01;93176.25;5068408;28;20196;-71
2023/05/03 08:54:34;;;;;;;10.50;9.90;;;;;;;13.31;61.88;93184.06;5067875;28;20193;-70
2023/05/03 08:56:59;;;;;;;11.53;10.80;;;;;;;13.34;61.95;93159.13;5068619;28;20207;-70
2023/05/03 08:59:27;;;;;;;10.87;10.17;;;;;;;13.69;60.82;93185.69;5067848;28;20208;-70
2023/05/03 09:01:53;;;;;;;11.60;10.50;;;;;;;13.78;60.99;93193.69;5068603;28;20572;-71
2023/05/03 09:04:18;;;;;;;10.97;10.30;;;;;;;14.11;60.07;93190.84;5068793;28;20208;-72
2023/05/03 09:06:44;;;;;;;11.33;10.63;;;;;;;14.22;59.79;93181.75;5068147;28;20247;-70
2023/05/03 09:09:09;;;;;;;11.03;10.33;;;;;;;14.69;58.90;93172.09;5068483;28;20186;-70
2023/05/03 09:11:37;;;;;;;11.17;10.57;;;;;;;15.06;57.47;93185.09;5067077;28;20233;-70
2023/05/03 09:14:19;;;;;;;10.60;9.97;;;;;;;15.64;56.20;93178.19;5050677;28;20188;-70
2023/05/03 09:16:45;;;;;;;11.33;10.73;;;;;;;15.64;54.88;93170.28;5065477;28;20208;-70
2023/05/03 09:19:12;;;;;;;10.73;10.07;;;;;;;15.86;54.65;93179.00;5067433;28;20219;-70
2023/05/03 09:21:39;;;;;;;11.20;10.50;;;;;;;16.03;54.51;93173.13;5067126;28;20240;-70
2023/05/03 09:24:19;;;;;;;10.70;10.10;;;;;;;16.06;55.10;93172.53;5067938;28;20231;-71
2023/05/03 09:26:50;;;;;;;11.03;10.23;;;;;;;16.10;55.64;93173.47;5070668;28;20236;-71
2023/05/03 09:29:34;;;;;;;11.30;10.60;;;;;;;15.41;56.33;93158.91;5072694;28;20259;-70
2023/05/03 09:32:04;;;;;;;11.93;10.83;;;;;;;15.90;54.28;93163.41;5072127;28;20236;-70
2023/05/03 09:34:30;;;;;;;10.97;10.27;;;;;;;16.16;54.52;93156.47;5071256;28;20212;-70
2023/05/03 09:36:56;;;;;;;11.87;10.97;;;;;;;15.57;56.66;93151.47;5071982;28;20185;-70
2023/05/03 09:39:22;;;;;;;10.87;9.97;;;;;;;15.29;57.75;93132.28;5071493;28;20185;-70
2023/05/03 09:41:48;;;;;;;10.83;10.17;;;;;;;15.79;55.97;93122.56;5071801;28;20199;-69
2023/05/03 09:44:13;;;;;;;11.43;10.47;;;;;;;15.30;58.12;93148.84;5071138;28;20197;-70
2023/05/03 09:46:39;;;;;;;9.57;8.97;;;;;;;15.65;57.75;93143.66;5071254;28;20225;-71
2023/05/03 09:49:05;;;;;;;9.70;9.20;;;;;;;15.88;56.03;93150.53;5071902;28;20213;-71
2023/05/03 09:51:31;;;;;;;9.70;9.20;;;;;;;16.06;55.52;93141.69;5071538;28;20221;-70
2023/05/03 09:53:57;;;;;;;9.80;9.23;;;;;;;16.07;55.91;93139.84;5071634;28;20185;-70
2023/05/03 09:56:25;;;;;;;10.40;9.70;;;;;;;16.00;56.13;93134.19;5071101;28;20236;-71
2023/05/03 09:58:52;;;;;;;10.40;9.70;;;;;;;15.91;55.44;93133.34;5070586;28;20190;-71
2023/05/03 10:01:19;;;;;;;11.00;10.20;;;;;;;15.98;55.54;93133.72;5069806;28;20261;-71
2023/05/03 10:03:49;;;;;;;10.03;9.33;;;;;;;15.86;55.24;93144.78;5065029;28;20181;-69
2023/05/03 10:06:31;;;;;;;9.53;8.70;;;;;;;15.84;54.27;93140.88;5070408;28;20228;-71
2023/05/03 10:09:04;;;;;;;9.23;8.73;;;;;;;16.01;54.77;93136.53;5072163;28;21551;-70
2023/05/03 10:11:35;;;;;;;11.07;10.37;;;;;;;16.32;54.01;93144.50;5071449;28;20232;-71
2023/05/03 10:14:00;;;;;;;10.27;9.60;;;;;;;16.84;53.47;93142.97;5072960;28;20212;-69
2023/05/03 10:16:31;;;;;;;9.30;8.73;;;;;;;17.10;52.22;93139.38;5072367;28;20217;-70
2023/05/03 10:19:13;;;;;;;10.20;9.30;;;;;;;16.76;52.77;93133.94;5072453;28;20590;-71
2023/05/03 10:21:55;;;;;;;8.87;8.37;;;;;;;16.36;54.04;93128.88;5064505;28;20233;-70
2023/05/03 10:24:20;;;;;;;10.50;9.70;;;;;;;16.38;53.99;93110.91;5068738;28;20197;-70
2023/05/03 10:26:48;;;;;;;10.13;9.53;;;;;;;16.73;52.85;93110.81;5071799;28;20221;-71
2023/05/03 10:29:33;;;;;;;10.23;9.30;;;;;;;16.96;53.29;93101.78;5072014;28;20190;-70
2023/05/03 10:32:02;;;;;;;10.40;9.60;;;;;;;17.17;51.95;93113.31;5063012;28;20221;-71
2023/05/03 10:34:32;;;;;;;9.63;8.90;;;;;;;17.51;52.24;93113.41;5070577;28;20258;-71
2023/05/03 10:37:06;;;;;;;10.77;10.17;;;;;;;17.81;51.16;93109.09;5069853;28;20200;-70
2023/05/03 10:39:32;;;;;;;9.47;8.83;;;;;;;18.22;49.60;93103.34;5070252;28;20212;-70
2023/05/03 10:42:00;;;;;;;10.03;9.40;;;;;;;18.21;49.71;93107.84;5070252;28;20185;-69
2023/05/03 10:44:52;;;;;;;9.90;9.20;;;;;;;18.46;51.46;93108.94;5070286;28;20280;-70
2023/05/03 10:47:23;;;;;;;9.73;9.10;;;;;;;18.69;49.13;93116.34;5059507;28;20218;-69
2023/05/03 10:50:10;;;;;;;9.73;9.17;;;;;;;18.49;48.83;93116.25;5070506;28;20222;-69
2023/05/03 10:52:38;;;;;;;10.20;9.60;;;;;;;17.99;49.14;93113.31;5070988;28;20265;-70
2023/05/03 10:55:15;;;;;;;10.37;9.77;;;;;;;17.77;50.41;93120.59;5052700;28;20217;-69
2023/05/03 10:57:43;;;;;;;10.60;9.80;;;;;;;17.80;52.10;93115.47;5070830;28;20201;-70
2023/05/03 11:00:35;;;;;;;9.47;8.87;;;;;;;18.12;49.58;93117.66;5070036;28;20220;-71
2023/05/03 11:03:20;;;;;;;9.67;9.07;;;;;;;18.21;49.91;93115.78;5069526;28;20201;-71
2023/05/03 11:12:47;;;;;;;10.95;10.35;;;;;;;18.27;50.29;93089.97;5138286;27;20483;-72
2023/05/03 11:15:12;;;;;;;10.73;9.93;;;;;;;18.13;50.99;93081.44;5116223;27;20212;-70
2023/05/03 11:17:38;;;;;;;10.17;9.33;;;;;;;17.86;50.95;93087.03;5121879;28;20187;-70
2023/05/03 11:20:09;;;;;;;10.20;9.60;;;;;;;18.02;50.70;93091.56;5105619;28;20231;-70
2023/05/03 11:22:35;;;;;;;11.03;10.30;;;;;;;17.83;51.69;93087.66;5108008;28;20195;-70
2023/05/03 11:25:00;;;;;;;10.70;10.20;;;;;;;17.99;50.94;93072.91;5100675;28;20224;-68
2023/05/03 11:27:26;;;;;;;11.30;10.53;;;;;;;18.12;51.18;93056.88;5084899;28;20185;-68
2023/05/03 11:29:57;;;;;;;11.43;10.60;;;;;;;17.65;51.89;93080.81;5084219;28;20826;-67
2023/05/03 11:32:26;;;;;;;10.23;9.47;;;;;;;17.41;53.35;93079.38;5085240;28;20216;-68
2023/05/03 11:34:51;;;;;;;10.93;10.33;;;;;;;17.42;53.56;93085.41;5084491;28;20228;-68